sensor_id;sensor_type;location;lat;lon;timestamp;temperature;humidity
17092;DHT22;8661;45.700;4.880;2024-03-07T00:00:07;3.80;99.90
17092;DHT22;8661;45.700;4.880;2024-03-07T00:02:40;3.80;99.90
17092;DHT22;8661;45.700;4.880;2024-03-07T00:05:07;3.70;99.90
17092;DHT22;8661;45.700;4.880;2024-03-07T00:07:34;3.70;99.90
17092;DHT22;8661;45.700;4.880;2024-03-07T00:10:01;3.70;99.90
17092;DHT22;8661;45.700;4.880;2024-03-07T00:12:30;3.70;99.90
17092;DHT22;8661;45.700;4.880;2024-03-07T00:14:58;3.70;99.90
17092;DHT22;8661;45.700;4.880;2024-03-07T00:17:26;3.60;99.90
17092;DHT22;8661;45.700;4.880;2024-03-07T00:19:53;3.70;99.90
17092;DHT22;8661;45.700;4.880;2024-03-07T00:22:20;3.70;99.90
17092;DHT22;8661;45.700;4.880;2024-03-07T00:24:48;3.70;99.90
17092;DHT22;8661;45.700;4.880;2024-03-07T00:27:15;3.80;99.90
17092;DHT22;8661;45.700;4.880;2024-03-07T00:29:42;3.60;99.90
17092;DHT22;8661;45.700;4.880;2024-03-07T00:32:11;3.60;99.90
17092;DHT22;8661;45.700;4.880;2024-03-07T00:34:40;3.60;99.90
17092;DHT22;8661;45.700;4.880;2024-03-07T00:37:07;3.60;99.90
17092;DHT22;8661;45.700;4.880;2024-03-07T00:39:34;3.50;99.90
17092;DHT22;8661;45.700;4.880;2024-03-07T00:42:01;3.50;99.90
17092;DHT22;8661;45.700;4.880;2024-03-07T00:44:28;3.50;99.90
17092;DHT22;8661;45.700;4.880;2024-03-07T00:46:55;3.50;99.90
17092;DHT22;8661;45.700;4.880;2024-03-07T00:49:23;3.40;99.90
17092;DHT22;8661;45.700;4.880;2024-03-07T00:51:51;3.30;99.90
17092;DHT22;8661;45.700;4.880;2024-03-07T00:54:19;3.30;99.90
17092;DHT22;8661;45.700;4.880;2024-03-07T00:56:46;3.20;99.90
17092;DHT22;8661;45.700;4.880;2024-03-07T00:59:14;3.20;99.90
17092;DHT22;8661;45.700;4.880;2024-03-07T01:01:41;3.10;99.90
17092;DHT22;8661;45.700;4.880;2024-03-07T01:04:08;3.10;99.90
17092;DHT22;8661;45.700;4.880;2024-03-07T01:06:35;3.10;99.90
17092;DHT22;8661;45.700;4.880;2024-03-07T01:09:04;3.20;99.90
17092;DHT22;8661;45.700;4.880;2024-03-07T01:11:39;3.20;99.90
17092;DHT22;8661;45.700;4.880;2024-03-07T01:14:06;3.20;99.90
17092;DHT22;8661;45.700;4.880;2024-03-07T01:16:32;3.10;99.90
17092;DHT22;8661;45.700;4.880;2024-03-07T01:19:00;3.10;99.90
17092;DHT22;8661;45.700;4.880;2024-03-07T01:21:27;3.10;99.90
17092;DHT22;8661;45.700;4.880;2024-03-07T01:23:54;3.10;99.90
17092;DHT22;8661;45.700;4.880;2024-03-07T01:26:22;3.00;99.90
17092;DHT22;8661;45.700;4.880;2024-03-07T01:28:50;3.00;99.90
17092;DHT22;8661;45.700;4.880;2024-03-07T01:31:17;3.00;99.90
17092;DHT22;8661;45.700;4.880;2024-03-07T01:33:44;3.00;99.90
17092;DHT22;8661;45.700;4.880;2024-03-07T01:36:11;3.10;99.90
17092;DHT22;8661;45.700;4.880;2024-03-07T01:38:38;3.00;99.90
17092;DHT22;8661;45.700;4.880;2024-03-07T01:41:05;3.00;99.90
17092;DHT22;8661;45.700;4.880;2024-03-07T01:43:33;3.10;99.90
17092;DHT22;8661;45.700;4.880;2024-03-07T01:46:00;3.00;99.90
17092;DHT22;8661;45.700;4.880;2024-03-07T01:48:28;3.00;99.90
17092;DHT22;8661;45.700;4.880;2024-03-07T01:50:55;3.00;99.90
17092;DHT22;8661;45.700;4.880;2024-03-07T01:53:23;2.90;99.90
17092;DHT22;8661;45.700;4.880;2024-03-07T01:55:51;2.90;99.90
17092;DHT22;8661;45.700;4.880;2024-03-07T01:58:19;2.90;99.90
17092;DHT22;8661;45.700;4.880;2024-03-07T02:00:48;2.90;99.90
17092;DHT22;8661;45.700;4.880;2024-03-07T02:03:16;2.80;99.90
17092;DHT22;8661;45.700;4.880;2024-03-07T02:05:43;2.80;99.90
17092;DHT22;8661;45.700;4.880;2024-03-07T02:08:11;2.80;99.90
17092;DHT22;8661;45.700;4.880;2024-03-07T02:10:38;2.80;99.90
17092;DHT22;8661;45.700;4.880;2024-03-07T02:13:05;2.80;99.90
17092;DHT22;8661;45.700;4.880;2024-03-07T02:15:32;2.70;99.90
17092;DHT22;8661;45.700;4.880;2024-03-07T02:18:01;2.70;99.90
17092;DHT22;8661;45.700;4.880;2024-03-07T02:20:27;2.70;99.90
17092;DHT22;8661;45.700;4.880;2024-03-07T02:22:56;2.70;99.90
17092;DHT22;8661;45.700;4.880;2024-03-07T02:25:23;2.60;99.90
17092;DHT22;8661;45.700;4.880;2024-03-07T02:27:49;2.60;99.90
17092;DHT22;8661;45.700;4.880;2024-03-07T02:30:16;2.50;99.90
17092;DHT22;8661;45.700;4.880;2024-03-07T02:32:46;2.50;99.90
17092;DHT22;8661;45.700;4.880;2024-03-07T02:35:17;2.40;99.90
17092;DHT22;8661;45.700;4.880;2024-03-07T02:37:45;2.40;99.90
17092;DHT22;8661;45.700;4.880;2024-03-07T02:40:14;2.40;99.90
17092;DHT22;8661;45.700;4.880;2024-03-07T02:42:41;2.40;99.90
17092;DHT22;8661;45.700;4.880;2024-03-07T02:45:09;2.40;99.90
17092;DHT22;8661;45.700;4.880;2024-03-07T02:47:40;2.40;99.90
17092;DHT22;8661;45.700;4.880;2024-03-07T02:50:09;2.40;99.90
17092;DHT22;8661;45.700;4.880;2024-03-07T02:52:37;2.30;99.90
17092;DHT22;8661;45.700;4.880;2024-03-07T02:55:05;2.30;99.90
17092;DHT22;8661;45.700;4.880;2024-03-07T02:57:37;2.30;99.90
17092;DHT22;8661;45.700;4.880;2024-03-07T03:00:05;2.20;99.90
17092;DHT22;8661;45.700;4.880;2024-03-07T03:02:39;2.20;99.90
17092;DHT22;8661;45.700;4.880;2024-03-07T03:05:07;2.20;99.90
17092;DHT22;8661;45.700;4.880;2024-03-07T03:07:38;2.20;99.90
17092;DHT22;8661;45.700;4.880;2024-03-07T03:10:06;2.20;99.90
17092;DHT22;8661;45.700;4.880;2024-03-07T03:12:36;2.20;99.90
17092;DHT22;8661;45.700;4.880;2024-03-07T03:15:04;2.10;99.90
17092;DHT22;8661;45.700;4.880;2024-03-07T03:17:31;2.10;99.90
17092;DHT22;8661;45.700;4.880;2024-03-07T03:19:59;2.10;99.90
17092;DHT22;8661;45.700;4.880;2024-03-07T03:22:26;2.10;99.90
17092;DHT22;8661;45.700;4.880;2024-03-07T03:24:53;2.10;99.90
17092;DHT22;8661;45.700;4.880;2024-03-07T03:27:21;2.10;99.90
17092;DHT22;8661;45.700;4.880;2024-03-07T03:29:49;2.10;99.90
17092;DHT22;8661;45.700;4.880;2024-03-07T03:32:17;2.10;99.90
17092;DHT22;8661;45.700;4.880;2024-03-07T03:34:44;2.00;99.90
17092;DHT22;8661;45.700;4.880;2024-03-07T03:37:11;2.00;99.90
17092;DHT22;8661;45.700;4.880;2024-03-07T03:39:38;2.00;99.90
17092;DHT22;8661;45.700;4.880;2024-03-07T03:42:05;2.00;99.90
17092;DHT22;8661;45.700;4.880;2024-03-07T03:44:33;2.00;99.90
17092;DHT22;8661;45.700;4.880;2024-03-07T03:47:02;2.00;99.90
17092;DHT22;8661;45.700;4.880;2024-03-07T03:49:29;2.00;99.90
17092;DHT22;8661;45.700;4.880;2024-03-07T03:51:57;1.90;99.90
17092;DHT22;8661;45.700;4.880;2024-03-07T03:54:24;1.90;99.90
17092;DHT22;8661;45.700;4.880;2024-03-07T03:56:51;1.90;99.90
17092;DHT22;8661;45.700;4.880;2024-03-07T03:59:18;1.90;99.90
17092;DHT22;8661;45.700;4.880;2024-03-07T04:01:45;1.90;99.90
17092;DHT22;8661;45.700;4.880;2024-03-07T04:04:13;1.90;99.90
17092;DHT22;8661;45.700;4.880;2024-03-07T04:06:40;1.90;99.90
17092;DHT22;8661;45.700;4.880;2024-03-07T04:09:07;1.90;99.90
17092;DHT22;8661;45.700;4.880;2024-03-07T04:11:34;1.90;99.90
17092;DHT22;8661;45.700;4.880;2024-03-07T04:14:02;1.90;99.90
17092;DHT22;8661;45.700;4.880;2024-03-07T04:16:29;1.90;99.90
17092;DHT22;8661;45.700;4.880;2024-03-07T04:18:56;1.90;99.90
17092;DHT22;8661;45.700;4.880;2024-03-07T04:21:25;1.80;99.90
17092;DHT22;8661;45.700;4.880;2024-03-07T04:23:52;1.80;99.90
17092;DHT22;8661;45.700;4.880;2024-03-07T04:26:21;1.80;99.90
17092;DHT22;8661;45.700;4.880;2024-03-07T04:28:48;1.80;99.90
17092;DHT22;8661;45.700;4.880;2024-03-07T04:31:15;1.80;99.90
17092;DHT22;8661;45.700;4.880;2024-03-07T04:33:42;1.70;99.90
17092;DHT22;8661;45.700;4.880;2024-03-07T04:36:09;1.70;99.90
17092;DHT22;8661;45.700;4.880;2024-03-07T04:38:39;1.70;99.90
17092;DHT22;8661;45.700;4.880;2024-03-07T04:41:10;1.60;99.90
17092;DHT22;8661;45.700;4.880;2024-03-07T04:43:37;1.50;99.90
17092;DHT22;8661;45.700;4.880;2024-03-07T04:46:04;1.50;99.90
17092;DHT22;8661;45.700;4.880;2024-03-07T04:48:32;1.50;99.90
17092;DHT22;8661;45.700;4.880;2024-03-07T04:50:59;1.50;99.90
17092;DHT22;8661;45.700;4.880;2024-03-07T04:53:26;1.50;99.90
17092;DHT22;8661;45.700;4.880;2024-03-07T04:55:54;1.60;99.90
17092;DHT22;8661;45.700;4.880;2024-03-07T04:58:21;1.60;99.90
17092;DHT22;8661;45.700;4.880;2024-03-07T05:00:48;1.50;99.90
17092;DHT22;8661;45.700;4.880;2024-03-07T05:03:15;1.50;99.90
17092;DHT22;8661;45.700;4.880;2024-03-07T05:05:42;1.50;99.90
17092;DHT22;8661;45.700;4.880;2024-03-07T05:08:09;1.50;99.90
17092;DHT22;8661;45.700;4.880;2024-03-07T05:10:37;1.50;99.90
17092;DHT22;8661;45.700;4.880;2024-03-07T05:13:06;1.40;99.90
17092;DHT22;8661;45.700;4.880;2024-03-07T05:15:33;1.50;99.90
17092;DHT22;8661;45.700;4.880;2024-03-07T05:18:00;1.40;99.90
17092;DHT22;8661;45.700;4.880;2024-03-07T05:20:26;1.40;99.90
17092;DHT22;8661;45.700;4.880;2024-03-07T05:22:54;1.40;99.90
17092;DHT22;8661;45.700;4.880;2024-03-07T05:25:21;1.40;99.90
17092;DHT22;8661;45.700;4.880;2024-03-07T05:27:48;1.40;99.90
17092;DHT22;8661;45.700;4.880;2024-03-07T05:30:17;1.40;99.90
17092;DHT22;8661;45.700;4.880;2024-03-07T05:32:45;1.40;99.90
17092;DHT22;8661;45.700;4.880;2024-03-07T05:35:13;1.40;99.90
17092;DHT22;8661;45.700;4.880;2024-03-07T05:37:40;1.40;99.90
17092;DHT22;8661;45.700;4.880;2024-03-07T05:40:12;1.40;99.90
17092;DHT22;8661;45.700;4.880;2024-03-07T05:42:39;1.30;99.90
17092;DHT22;8661;45.700;4.880;2024-03-07T05:45:07;1.30;99.90
17092;DHT22;8661;45.700;4.880;2024-03-07T05:47:36;1.30;99.90
17092;DHT22;8661;45.700;4.880;2024-03-07T05:50:03;1.30;99.90
17092;DHT22;8661;45.700;4.880;2024-03-07T05:52:33;1.30;99.90
17092;DHT22;8661;45.700;4.880;2024-03-07T05:55:00;1.30;99.90
17092;DHT22;8661;45.700;4.880;2024-03-07T05:57:27;1.30;99.90
17092;DHT22;8661;45.700;4.880;2024-03-07T05:59:54;1.30;99.90
17092;DHT22;8661;45.700;4.880;2024-03-07T06:02:22;1.30;99.90
17092;DHT22;8661;45.700;4.880;2024-03-07T06:04:50;1.30;99.90
17092;DHT22;8661;45.700;4.880;2024-03-07T06:07:17;1.40;99.90
17092;DHT22;8661;45.700;4.880;2024-03-07T06:09:44;1.30;99.90
17092;DHT22;8661;45.700;4.880;2024-03-07T06:12:11;1.30;99.90
17092;DHT22;8661;45.700;4.880;2024-03-07T06:14:38;1.20;99.90
17092;DHT22;8661;45.700;4.880;2024-03-07T06:17:05;1.20;99.90
17092;DHT22;8661;45.700;4.880;2024-03-07T06:19:32;1.20;99.90
17092;DHT22;8661;45.700;4.880;2024-03-07T06:22:00;1.20;99.90
17092;DHT22;8661;45.700;4.880;2024-03-07T06:24:31;1.20;99.90
17092;DHT22;8661;45.700;4.880;2024-03-07T06:26:59;1.20;99.90
17092;DHT22;8661;45.700;4.880;2024-03-07T06:29:29;1.20;99.90
17092;DHT22;8661;45.700;4.880;2024-03-07T06:31:57;1.30;99.90
17092;DHT22;8661;45.700;4.880;2024-03-07T06:34:25;1.40;99.90
17092;DHT22;8661;45.700;4.880;2024-03-07T06:36:56;1.60;99.90
17092;DHT22;8661;45.700;4.880;2024-03-07T06:39:24;1.70;99.90
17092;DHT22;8661;45.700;4.880;2024-03-07T06:41:51;1.70;99.90
17092;DHT22;8661;45.700;4.880;2024-03-07T06:44:18;1.80;99.90
17092;DHT22;8661;45.700;4.880;2024-03-07T06:46:48;1.90;99.90
17092;DHT22;8661;45.700;4.880;2024-03-07T06:49:15;2.00;99.90
17092;DHT22;8661;45.700;4.880;2024-03-07T06:51:42;2.10;99.90
17092;DHT22;8661;45.700;4.880;2024-03-07T06:54:09;2.90;99.90
17092;DHT22;8661;45.700;4.880;2024-03-07T06:56:37;4.00;99.90
17092;DHT22;8661;45.700;4.880;2024-03-07T06:59:06;4.90;99.90
17092;DHT22;8661;45.700;4.880;2024-03-07T07:01:33;5.40;99.90
17092;DHT22;8661;45.700;4.880;2024-03-07T07:03:59;5.50;99.90
17092;DHT22;8661;45.700;4.880;2024-03-07T07:06:29;6.00;99.90
17092;DHT22;8661;45.700;4.880;2024-03-07T07:08:56;5.90;99.90
17092;DHT22;8661;45.700;4.880;2024-03-07T07:11:24;6.20;99.90
17092;DHT22;8661;45.700;4.880;2024-03-07T07:13:52;7.10;99.90
17092;DHT22;8661;45.700;4.880;2024-03-07T07:16:19;7.80;99.90
17092;DHT22;8661;45.700;4.880;2024-03-07T07:18:47;8.40;99.90
17092;DHT22;8661;45.700;4.880;2024-03-07T07:21:14;9.00;99.90
17092;DHT22;8661;45.700;4.880;2024-03-07T07:23:41;9.70;99.90
17092;DHT22;8661;45.700;4.880;2024-03-07T07:26:09;10.60;99.90
17092;DHT22;8661;45.700;4.880;2024-03-07T07:28:35;11.40;99.90
17092;DHT22;8661;45.700;4.880;2024-03-07T07:31:04;12.60;99.90
17092;DHT22;8661;45.700;4.880;2024-03-07T07:33:31;13.30;99.00
17092;DHT22;8661;45.700;4.880;2024-03-07T07:35:58;13.20;97.90
17092;DHT22;8661;45.700;4.880;2024-03-07T07:38:25;12.20;97.50
17092;DHT22;8661;45.700;4.880;2024-03-07T07:40:52;11.30;98.70
17092;DHT22;8661;45.700;4.880;2024-03-07T07:43:19;10.60;99.90
17092;DHT22;8661;45.700;4.880;2024-03-07T07:45:46;10.10;99.90
17092;DHT22;8661;45.700;4.880;2024-03-07T07:48:14;11.00;99.90
17092;DHT22;8661;45.700;4.880;2024-03-07T07:50:42;12.60;99.50
17092;DHT22;8661;45.700;4.880;2024-03-07T07:53:09;14.00;96.80
17092;DHT22;8661;45.700;4.880;2024-03-07T07:55:36;15.00;94.40
17092;DHT22;8661;45.700;4.880;2024-03-07T07:58:04;16.00;92.50
17092;DHT22;8661;45.700;4.880;2024-03-07T08:00:31;16.40;90.50
17092;DHT22;8661;45.700;4.880;2024-03-07T08:02:59;16.50;89.60
17092;DHT22;8661;45.700;4.880;2024-03-07T08:05:29;17.00;88.60
17092;DHT22;8661;45.700;4.880;2024-03-07T08:07:57;16.80;86.50
17092;DHT22;8661;45.700;4.880;2024-03-07T08:10:26;17.00;86.00
17092;DHT22;8661;45.700;4.880;2024-03-07T08:12:54;17.10;85.30
17092;DHT22;8661;45.700;4.880;2024-03-07T08:15:21;17.80;82.80
17092;DHT22;8661;45.700;4.880;2024-03-07T08:17:49;17.80;81.90
17092;DHT22;8661;45.700;4.880;2024-03-07T08:20:18;17.60;81.90
17092;DHT22;8661;45.700;4.880;2024-03-07T08:22:48;18.00;81.60
17092;DHT22;8661;45.700;4.880;2024-03-07T08:25:17;18.00;80.40
17092;DHT22;8661;45.700;4.880;2024-03-07T08:27:48;18.10;80.00
17092;DHT22;8661;45.700;4.880;2024-03-07T08:30:16;18.00;79.90
17092;DHT22;8661;45.700;4.880;2024-03-07T08:32:44;18.20;80.10
17092;DHT22;8661;45.700;4.880;2024-03-07T08:35:11;18.20;78.20
17092;DHT22;8661;45.700;4.880;2024-03-07T08:37:39;17.90;78.40
17092;DHT22;8661;45.700;4.880;2024-03-07T08:40:08;17.60;79.60
17092;DHT22;8661;45.700;4.880;2024-03-07T08:42:36;17.50;79.30
17092;DHT22;8661;45.700;4.880;2024-03-07T08:45:05;17.60;80.20
17092;DHT22;8661;45.700;4.880;2024-03-07T08:47:32;17.50;80.30
17092;DHT22;8661;45.700;4.880;2024-03-07T08:49:59;17.70;80.70
17092;DHT22;8661;45.700;4.880;2024-03-07T08:52:27;17.50;79.60
17092;DHT22;8661;45.700;4.880;2024-03-07T08:54:54;17.50;79.80
17092;DHT22;8661;45.700;4.880;2024-03-07T08:57:23;17.60;79.00
17092;DHT22;8661;45.700;4.880;2024-03-07T08:59:50;17.40;79.90
17092;DHT22;8661;45.700;4.880;2024-03-07T09:02:16;17.40;81.10
17092;DHT22;8661;45.700;4.880;2024-03-07T09:04:43;17.60;80.10
17092;DHT22;8661;45.700;4.880;2024-03-07T09:07:12;17.70;79.60
17092;DHT22;8661;45.700;4.880;2024-03-07T09:09:40;17.90;78.40
17092;DHT22;8661;45.700;4.880;2024-03-07T09:12:09;18.40;77.80
17092;DHT22;8661;45.700;4.880;2024-03-07T09:14:37;19.00;76.30
17092;DHT22;8661;45.700;4.880;2024-03-07T09:17:05;19.40;75.10
17092;DHT22;8661;45.700;4.880;2024-03-07T09:19:32;19.70;74.10
17092;DHT22;8661;45.700;4.880;2024-03-07T09:21:59;19.50;73.80
17092;DHT22;8661;45.700;4.880;2024-03-07T09:24:30;19.90;72.60
17092;DHT22;8661;45.700;4.880;2024-03-07T09:26:57;20.40;70.80
17092;DHT22;8661;45.700;4.880;2024-03-07T09:29:24;20.50;71.00
17092;DHT22;8661;45.700;4.880;2024-03-07T09:31:53;20.60;69.50
17092;DHT22;8661;45.700;4.880;2024-03-07T09:34:20;20.40;70.20
17092;DHT22;8661;45.700;4.880;2024-03-07T09:36:47;21.00;69.20
17092;DHT22;8661;45.700;4.880;2024-03-07T09:39:15;22.40;67.10
17092;DHT22;8661;45.700;4.880;2024-03-07T09:41:42;22.10;66.40
17092;DHT22;8661;45.700;4.880;2024-03-07T09:44:10;21.70;66.60
17092;DHT22;8661;45.700;4.880;2024-03-07T09:46:40;21.80;65.70
17092;DHT22;8661;45.700;4.880;2024-03-07T09:49:10;22.00;65.40
17092;DHT22;8661;45.700;4.880;2024-03-07T09:51:38;21.90;65.20
17092;DHT22;8661;45.700;4.880;2024-03-07T09:54:06;21.90;65.40
17092;DHT22;8661;45.700;4.880;2024-03-07T09:56:34;21.90;64.90
17092;DHT22;8661;45.700;4.880;2024-03-07T09:59:04;22.20;64.10
17092;DHT22;8661;45.700;4.880;2024-03-07T10:01:33;22.30;63.70
17092;DHT22;8661;45.700;4.880;2024-03-07T10:04:01;22.50;62.30
17092;DHT22;8661;45.700;4.880;2024-03-07T10:06:38;22.70;62.80
17092;DHT22;8661;45.700;4.880;2024-03-07T10:09:06;22.40;62.40
17092;DHT22;8661;45.700;4.880;2024-03-07T10:11:34;22.60;63.40
17092;DHT22;8661;45.700;4.880;2024-03-07T10:14:01;22.60;62.10
17092;DHT22;8661;45.700;4.880;2024-03-07T10:16:30;22.30;62.00
17092;DHT22;8661;45.700;4.880;2024-03-07T10:18:58;22.50;62.20
17092;DHT22;8661;45.700;4.880;2024-03-07T10:21:26;22.70;60.90
17092;DHT22;8661;45.700;4.880;2024-03-07T10:24:05;22.90;60.30
17092;DHT22;8661;45.700;4.880;2024-03-07T10:26:34;23.00;59.40
17092;DHT22;8661;45.700;4.880;2024-03-07T10:29:04;22.90;61.30
17092;DHT22;8661;45.700;4.880;2024-03-07T10:31:32;23.00;61.20
17092;DHT22;8661;45.700;4.880;2024-03-07T10:33:59;22.90;60.90
17092;DHT22;8661;45.700;4.880;2024-03-07T10:36:28;22.40;62.20
17092;DHT22;8661;45.700;4.880;2024-03-07T10:38:56;22.60;61.50
17092;DHT22;8661;45.700;4.880;2024-03-07T10:41:45;22.70;61.40
17092;DHT22;8661;45.700;4.880;2024-03-07T10:44:19;22.80;60.00
17092;DHT22;8661;45.700;4.880;2024-03-07T10:46:51;22.60;59.60
17092;DHT22;8661;45.700;4.880;2024-03-07T10:49:20;22.30;60.20
17092;DHT22;8661;45.700;4.880;2024-03-07T10:51:58;22.70;60.30
17092;DHT22;8661;45.700;4.880;2024-03-07T10:54:34;23.00;59.40
17092;DHT22;8661;45.700;4.880;2024-03-07T10:57:15;22.80;59.80
17092;DHT22;8661;45.700;4.880;2024-03-07T10:59:49;22.80;59.80
17092;DHT22;8661;45.700;4.880;2024-03-07T11:02:24;22.80;59.80
17092;DHT22;8661;45.700;4.880;2024-03-07T11:04:55;23.00;58.80
17092;DHT22;8661;45.700;4.880;2024-03-07T11:07:23;23.10;59.60
17092;DHT22;8661;45.700;4.880;2024-03-07T11:09:51;22.70;60.00
17092;DHT22;8661;45.700;4.880;2024-03-07T11:12:23;22.60;60.60
17092;DHT22;8661;45.700;4.880;2024-03-07T11:14:53;23.00;60.30
17092;DHT22;8661;45.700;4.880;2024-03-07T11:17:22;23.50;59.20
17092;DHT22;8661;45.700;4.880;2024-03-07T11:19:49;23.80;58.40
17092;DHT22;8661;45.700;4.880;2024-03-07T11:22:37;23.50;57.40
17092;DHT22;8661;45.700;4.880;2024-03-07T11:25:05;24.00;67.10
17092;DHT22;8661;45.700;4.880;2024-03-07T11:27:36;23.80;57.50
17092;DHT22;8661;45.700;4.880;2024-03-07T11:30:05;23.90;57.40
17092;DHT22;8661;45.700;4.880;2024-03-07T11:32:35;23.70;58.00
17092;DHT22;8661;45.700;4.880;2024-03-07T11:35:04;23.30;58.50
17092;DHT22;8661;45.700;4.880;2024-03-07T11:37:39;23.10;59.30
17092;DHT22;8661;45.700;4.880;2024-03-07T11:40:14;22.90;59.40
17092;DHT22;8661;45.700;4.880;2024-03-07T11:43:02;22.40;60.00
17092;DHT22;8661;45.700;4.880;2024-03-07T11:45:31;22.20;60.70
17092;DHT22;8661;45.700;4.880;2024-03-07T11:48:05;22.50;60.50
17092;DHT22;8661;45.700;4.880;2024-03-07T11:50:34;22.90;59.50
17092;DHT22;8661;45.700;4.880;2024-03-07T11:53:02;22.60;60.00
17092;DHT22;8661;45.700;4.880;2024-03-07T11:55:31;22.50;60.10
17092;DHT22;8661;45.700;4.880;2024-03-07T11:58:12;22.90;60.30
17092;DHT22;8661;45.700;4.880;2024-03-07T12:00:40;22.30;60.20
17092;DHT22;8661;45.700;4.880;2024-03-07T12:03:08;21.90;61.20
17092;DHT22;8661;45.700;4.880;2024-03-07T12:05:39;22.30;60.90
17092;DHT22;8661;45.700;4.880;2024-03-07T12:08:06;22.30;60.20
17092;DHT22;8661;45.700;4.880;2024-03-07T12:10:35;22.20;60.30
17092;DHT22;8661;45.700;4.880;2024-03-07T12:13:05;22.40;60.40
17092;DHT22;8661;45.700;4.880;2024-03-07T12:15:34;22.20;59.80
17092;DHT22;8661;45.700;4.880;2024-03-07T12:18:02;22.50;59.10
17092;DHT22;8661;45.700;4.880;2024-03-07T12:20:38;22.60;59.30
17092;DHT22;8661;45.700;4.880;2024-03-07T12:23:07;22.70;59.00
17092;DHT22;8661;45.700;4.880;2024-03-07T12:25:35;22.50;59.70
17092;DHT22;8661;45.700;4.880;2024-03-07T12:28:06;22.40;59.80
17092;DHT22;8661;45.700;4.880;2024-03-07T12:30:48;22.50;59.40
17092;DHT22;8661;45.700;4.880;2024-03-07T12:33:17;22.60;59.40
17092;DHT22;8661;45.700;4.880;2024-03-07T12:35:46;22.40;59.50
17092;DHT22;8661;45.700;4.880;2024-03-07T12:38:13;22.40;59.40
17092;DHT22;8661;45.700;4.880;2024-03-07T12:40:42;22.90;58.70
17092;DHT22;8661;45.700;4.880;2024-03-07T12:43:16;22.90;58.30
17092;DHT22;8661;45.700;4.880;2024-03-07T12:45:48;22.60;58.90
17092;DHT22;8661;45.700;4.880;2024-03-07T12:48:15;22.80;58.70
17092;DHT22;8661;45.700;4.880;2024-03-07T12:50:45;23.00;58.40
17092;DHT22;8661;45.700;4.880;2024-03-07T12:53:12;23.30;58.90
17092;DHT22;8661;45.700;4.880;2024-03-07T12:55:39;23.10;58.40
17092;DHT22;8661;45.700;4.880;2024-03-07T12:58:08;23.30;59.40
17092;DHT22;8661;45.700;4.880;2024-03-07T13:00:37;23.20;58.70
17092;DHT22;8661;45.700;4.880;2024-03-07T13:03:06;22.30;59.80
17092;DHT22;8661;45.700;4.880;2024-03-07T13:05:32;22.30;60.10
17092;DHT22;8661;45.700;4.880;2024-03-07T13:07:59;22.40;59.50
17092;DHT22;8661;45.700;4.880;2024-03-07T13:10:26;22.80;59.20
17092;DHT22;8661;45.700;4.880;2024-03-07T13:12:53;22.70;58.70
17092;DHT22;8661;45.700;4.880;2024-03-07T13:15:20;22.50;58.60
17092;DHT22;8661;45.700;4.880;2024-03-07T13:17:50;22.30;59.20
17092;DHT22;8661;45.700;4.880;2024-03-07T13:20:20;22.70;58.50
17092;DHT22;8661;45.700;4.880;2024-03-07T13:22:53;22.90;57.90
17092;DHT22;8661;45.700;4.880;2024-03-07T13:25:23;22.90;58.00
17092;DHT22;8661;45.700;4.880;2024-03-07T13:27:57;23.10;58.40
17092;DHT22;8661;45.700;4.880;2024-03-07T13:30:26;23.30;58.20
17092;DHT22;8661;45.700;4.880;2024-03-07T13:32:54;22.80;58.60
17092;DHT22;8661;45.700;4.880;2024-03-07T13:35:23;22.70;58.60
17092;DHT22;8661;45.700;4.880;2024-03-07T13:37:51;22.70;58.90
17092;DHT22;8661;45.700;4.880;2024-03-07T13:40:22;23.40;58.00
17092;DHT22;8661;45.700;4.880;2024-03-07T13:42:54;23.50;57.30
17092;DHT22;8661;45.700;4.880;2024-03-07T13:45:23;23.00;57.90
17092;DHT22;8661;45.700;4.880;2024-03-07T13:47:52;22.50;58.80
17092;DHT22;8661;45.700;4.880;2024-03-07T13:50:21;22.90;58.70
17092;DHT22;8661;45.700;4.880;2024-03-07T13:52:52;22.70;58.50
17092;DHT22;8661;45.700;4.880;2024-03-07T13:55:53;22.50;58.90
17092;DHT22;8661;45.700;4.880;2024-03-07T13:58:39;23.00;57.10
17092;DHT22;8661;45.700;4.880;2024-03-07T14:01:25;22.90;56.90
17092;DHT22;8661;45.700;4.880;2024-03-07T14:04:44;22.50;57.60
17092;DHT22;8661;45.700;4.880;2024-03-07T14:07:26;23.00;57.10
17092;DHT22;8661;45.700;4.880;2024-03-07T14:10:29;22.70;57.30
17092;DHT22;8661;45.700;4.880;2024-03-07T14:13:18;22.30;57.50
17092;DHT22;8661;45.700;4.880;2024-03-07T14:16:13;22.50;57.40
17092;DHT22;8661;45.700;4.880;2024-03-07T14:19:27;22.60;55.80
17092;DHT22;8661;45.700;4.880;2024-03-07T14:22:20;22.70;55.80
17092;DHT22;8661;45.700;4.880;2024-03-07T14:25:23;22.80;56.30
17092;DHT22;8661;45.700;4.880;2024-03-07T14:28:12;22.80;55.20
17092;DHT22;8661;45.700;4.880;2024-03-07T14:30:45;22.80;55.40
17092;DHT22;8661;45.700;4.880;2024-03-07T14:33:20;22.50;56.30
17092;DHT22;8661;45.700;4.880;2024-03-07T14:36:00;22.50;56.70
17092;DHT22;8661;45.700;4.880;2024-03-07T14:38:40;22.40;57.20
17092;DHT22;8661;45.700;4.880;2024-03-07T14:41:09;22.60;57.70
17092;DHT22;8661;45.700;4.880;2024-03-07T14:43:38;22.70;56.40
17092;DHT22;8661;45.700;4.880;2024-03-07T14:46:06;22.50;56.30
17092;DHT22;8661;45.700;4.880;2024-03-07T14:48:35;22.30;56.70
17092;DHT22;8661;45.700;4.880;2024-03-07T14:51:03;21.90;56.40
17092;DHT22;8661;45.700;4.880;2024-03-07T14:53:30;21.60;56.60
17092;DHT22;8661;45.700;4.880;2024-03-07T14:55:57;21.30;56.90
17092;DHT22;8661;45.700;4.880;2024-03-07T14:58:26;21.70;57.00
17092;DHT22;8661;45.700;4.880;2024-03-07T15:00:53;21.70;56.30
17092;DHT22;8661;45.700;4.880;2024-03-07T15:03:20;21.70;56.80
17092;DHT22;8661;45.700;4.880;2024-03-07T15:05:47;21.40;57.10
17092;DHT22;8661;45.700;4.880;2024-03-07T15:08:14;21.20;57.20
17092;DHT22;8661;45.700;4.880;2024-03-07T15:10:45;21.10;57.40
17092;DHT22;8661;45.700;4.880;2024-03-07T15:13:14;21.00;57.90
17092;DHT22;8661;45.700;4.880;2024-03-07T15:15:44;21.30;57.40
17092;DHT22;8661;45.700;4.880;2024-03-07T15:18:11;20.90;57.00
17092;DHT22;8661;45.700;4.880;2024-03-07T15:20:38;20.80;57.90
17092;DHT22;8661;45.700;4.880;2024-03-07T15:23:07;20.70;57.60
17092;DHT22;8661;45.700;4.880;2024-03-07T15:25:34;20.30;58.10
17092;DHT22;8661;45.700;4.880;2024-03-07T15:28:03;20.00;58.10
17092;DHT22;8661;45.700;4.880;2024-03-07T15:30:31;19.70;58.80
17092;DHT22;8661;45.700;4.880;2024-03-07T15:33:02;19.90;58.90
17092;DHT22;8661;45.700;4.880;2024-03-07T15:35:30;19.70;58.00
17092;DHT22;8661;45.700;4.880;2024-03-07T15:37:58;19.70;58.00
17092;DHT22;8661;45.700;4.880;2024-03-07T15:40:25;19.50;57.90
17092;DHT22;8661;45.700;4.880;2024-03-07T15:42:55;19.20;58.80
17092;DHT22;8661;45.700;4.880;2024-03-07T15:45:24;19.10;59.30
17092;DHT22;8661;45.700;4.880;2024-03-07T15:47:52;18.70;59.60
17092;DHT22;8661;45.700;4.880;2024-03-07T15:50:21;18.50;60.50
17092;DHT22;8661;45.700;4.880;2024-03-07T15:52:50;18.50;60.50
17092;DHT22;8661;45.700;4.880;2024-03-07T15:55:18;18.60;60.80
17092;DHT22;8661;45.700;4.880;2024-03-07T15:57:50;18.90;59.10
17092;DHT22;8661;45.700;4.880;2024-03-07T16:00:20;20.10;58.00
17092;DHT22;8661;45.700;4.880;2024-03-07T16:02:51;21.60;56.60
17092;DHT22;8661;45.700;4.880;2024-03-07T16:05:21;20.60;56.20